Time;durP1;ratioP1;P1;durP2;ratioP2;P2;SDS_P1;SDS_P2;PMS_P1;PMS_P2;Temp;Humidity;BMP_temperature;BMP_pressure;BME280_temperature;BME280_humidity;BME280_pressure;Samples;Min_cycle;Max_cycle;Signal;HPM_P1;HPM_P2
2021/04/14 00:01:18;;;;;;;8.25;5.15;;;154.00;2252.80;;;;;;5055533;28;20457;-68
2021/04/14 00:03:45;;;;;;;6.20;5.00;;;154.00;2252.80;;;;;;5055195;28;20423;-68
2021/04/14 00:06:12;;;;;;;7.97;5.28;;;154.00;2252.80;;;;;;5055132;28;20365;-68
2021/04/14 00:08:39;;;;;;;6.25;4.88;;;154.00;2252.80;;;;;;5055133;28;20029;-68
2021/04/14 00:11:07;;;;;;;5.38;4.43;;;154.00;2252.80;;;;;;5055042;28;20400;-69
2021/04/14 00:13:43;;;;;;;7.40;4.78;;;154.00;2252.80;;;;;;5055094;28;20013;-69
2021/04/14 00:16:26;;;;;;;6.25;4.25;;;153.90;2252.80;;;;;;5054967;28;20483;-68
2021/04/14 00:18:52;;;;;;;5.80;4.25;;;154.00;2252.80;;;;;;5037006;28;20389;-68
2021/04/14 00:21:21;;;;;;;6.35;4.20;;;154.00;2252.80;;;;;;5054854;28;20530;-68
2021/04/14 00:23:47;;;;;;;8.15;4.90;;;154.00;2252.80;;;;;;5054895;28;20438;-68
2021/04/14 00:26:15;;;;;;;5.63;4.22;;;153.90;2252.80;;;;;;5054607;28;20424;-68
2021/04/14 00:28:42;;;;;;;6.45;4.50;;;154.00;2252.80;;;;;;5054714;28;20560;-68
2021/04/14 00:31:09;;;;;;;6.22;4.68;;;154.00;2252.80;;;;;;5054716;28;20413;-68
2021/04/14 00:33:36;;;;;;;6.60;4.60;;;153.90;2252.80;;;;;;5054560;28;20533;-68
2021/04/14 00:36:02;;;;;;;5.78;4.50;;;153.90;2252.80;;;;;;5054487;28;20438;-69
2021/04/14 00:38:29;;;;;;;5.85;4.57;;;153.80;2252.80;;;;;;5054367;28;20036;-69
2021/04/14 00:41:05;;;;;;;7.60;4.70;;;153.80;2252.80;;;;;;5054470;28;20421;-68
2021/04/14 00:43:35;;;;;;;8.75;4.68;;;153.80;2252.80;;;;;;5054522;28;20484;-68
2021/04/14 00:46:02;;;;;;;6.70;4.50;;;153.80;2252.80;;;;;;5055261;28;20426;-68
2021/04/14 00:48:29;;;;;;;6.95;4.32;;;153.70;2252.80;;;;;;5054672;28;20036;-68
2021/04/14 00:50:55;;;;;;;4.97;4.15;;;153.70;2252.80;;;;;;5054548;28;20353;-67
2021/04/14 00:53:22;;;;;;;6.15;4.13;;;153.70;2252.80;;;;;;5053713;28;20493;-68
2021/04/14 00:55:49;;;;;;;5.60;3.80;;;153.80;2252.80;;;;;;5053846;28;20339;-68
2021/04/14 00:58:16;;;;;;;5.03;3.63;;;153.70;2252.80;;;;;;5054370;28;20454;-67
2021/04/14 01:00:48;;;;;;;6.22;4.20;;;153.80;2252.80;;;;;;5054443;28;20527;-68
2021/04/14 01:03:19;;;;;;;4.53;3.45;;;153.80;2252.80;;;;;;5054134;28;20366;-68
2021/04/14 01:05:47;;;;;;;3.60;2.90;;;153.80;2252.80;;;;;;5053955;28;20354;-68
2021/04/14 01:08:13;;;;;;;3.85;2.63;;;153.80;2252.80;;;;;;5053982;28;20362;-68
2021/04/14 01:10:40;;;;;;;4.05;3.00;;;153.70;2252.80;;;;;;5053828;28;20021;-68
2021/04/14 01:13:06;;;;;;;4.00;3.10;;;153.60;2252.80;;;;;;5053820;28;20470;-67
2021/04/14 01:15:37;;;;;;;5.72;2.90;;;153.60;2252.80;;;;;;5053800;28;20450;-67
2021/04/14 01:18:06;;;;;;;3.88;3.38;;;153.60;2252.80;;;;;;5054395;28;20455;-67
2021/04/14 01:20:34;;;;;;;6.60;3.50;;;153.60;2252.80;;;;;;5053748;28;20457;-67
2021/04/14 01:23:01;;;;;;;4.93;2.92;;;153.60;2252.80;;;;;;5054082;28;20358;-67
2021/04/14 01:25:36;;;;;;;3.65;2.72;;;153.60;2252.80;;;;;;5053718;28;20589;-67
2021/04/14 01:28:12;;;;;;;4.28;2.60;;;153.70;2252.80;;;;;;5053745;28;20469;-68
2021/04/14 01:30:40;;;;;;;2.58;2.35;;;153.60;2252.80;;;;;;5054265;28;20528;-67
2021/04/14 01:33:08;;;;;;;2.85;2.20;;;153.60;2252.80;;;;;;5054186;28;20469;-67
2021/04/14 01:35:34;;;;;;;2.72;2.20;;;128.90;2252.80;;;;;;5053589;28;20412;-67
2021/04/14 01:38:00;;;;;;;3.58;2.28;;;128.80;2252.80;;;;;;5053457;28;20466;-67
2021/04/14 01:40:27;;;;;;;3.35;2.70;;;128.80;2252.80;;;;;;5053488;28;20454;-67
2021/04/14 01:42:55;;;;;;;3.10;2.45;;;128.80;2252.80;;;;;;5053534;28;20519;-67
2021/04/14 01:45:26;;;;;;;3.33;2.50;;;128.80;2252.80;;;;;;5053462;28;20410;-67
2021/04/14 01:47:52;;;;;;;4.55;2.70;;;128.80;2252.80;;;;;;5053721;28;20385;-67
2021/04/14 01:50:19;;;;;;;4.32;2.38;;;128.90;2252.80;;;;;;5053445;28;20032;-67
2021/04/14 01:52:45;;;;;;;3.17;2.15;;;128.90;2252.80;;;;;;5053933;28;20469;-67
2021/04/14 01:55:12;;;;;;;3.10;2.10;;;128.80;2252.80;;;;;;5053311;28;20527;-67
2021/04/14 01:57:38;;;;;;;2.72;2.22;;;128.70;2252.80;;;;;;5053341;28;20448;-67
2021/04/14 02:00:22;;;;;;;3.00;2.55;;;128.60;2252.80;;;;;;5053355;28;20384;-67
2021/04/14 02:02:49;;;;;;;3.63;2.50;;;128.60;2252.80;;;;;;5053291;28;20488;-68
2021/04/14 02:05:17;;;;;;;3.33;2.80;;;128.50;2252.80;;;;;;5054138;28;20369;-68
2021/04/14 02:07:43;;;;;;;2.58;2.38;;;128.70;2252.80;;;;;;5057375;28;20475;-67
2021/04/14 02:10:12;;;;;;;2.53;2.30;;;128.70;2252.80;;;;;;5057373;28;20377;-68
2021/04/14 02:12:38;;;;;;;3.60;2.30;;;128.80;2252.80;;;;;;5057285;28;20370;-68
2021/04/14 02:15:14;;;;;;;3.08;2.30;;;128.80;2252.80;;;;;;5057282;28;20461;-67
2021/04/14 02:17:40;;;;;;;2.50;2.10;;;128.80;2252.80;;;;;;5057427;28;20437;-67
2021/04/14 02:20:08;;;;;;;2.88;2.15;;;128.80;2252.80;;;;;;5057186;28;20393;-67
2021/04/14 02:22:34;;;;;;;2.60;2.10;;;128.70;2252.80;;;;;;5057139;28;20480;-67
2021/04/14 02:25:00;;;;;;;2.35;2.00;;;128.70;2252.80;;;;;;5057387;28;20362;-67
2021/04/14 02:27:26;;;;;;;2.00;1.70;;;128.60;2252.80;;;;;;5056772;28;20385;-67
2021/04/14 02:29:52;;;;;;;2.60;1.98;;;128.60;2252.80;;;;;;5056962;28;20461;-68
2021/04/14 02:32:18;;;;;;;2.45;1.83;;;128.60;2252.80;;;;;;5056900;28;20100;-68
2021/04/14 02:34:44;;;;;;;2.83;1.90;;;128.50;2252.80;;;;;;5056950;28;20083;-67
2021/04/14 02:37:10;;;;;;;3.42;1.90;;;128.50;2252.80;;;;;;5056801;28;20369;-67
2021/04/14 02:39:37;;;;;;;2.20;1.92;;;128.50;2252.80;;;;;;5056867;28;20525;-67
2021/04/14 02:42:03;;;;;;;2.80;2.28;;;128.40;2252.80;;;;;;5056792;28;20342;-67
2021/04/14 02:44:29;;;;;;;2.40;2.10;;;128.50;2252.80;;;;;;5056709;28;20377;-67
2021/04/14 02:46:56;;;;;;;3.55;2.53;;;128.40;2252.80;;;;;;5056760;28;20021;-67
2021/04/14 02:49:24;;;;;;;5.40;2.80;;;128.40;2252.80;;;;;;5056721;28;20523;-67
2021/04/14 02:51:51;;;;;;;2.90;2.45;;;128.50;2252.80;;;;;;5056638;28;20488;-67
2021/04/14 02:54:18;;;;;;;2.92;2.17;;;128.30;2252.80;;;;;;5056588;28;20421;-67
2021/04/14 02:56:45;;;;;;;3.60;2.78;;;128.30;2252.80;;;;;;5056431;28;20415;-67
2021/04/14 02:59:11;;;;;;;3.17;2.38;;;128.20;2252.80;;;;;;5056635;28;20365;-68
2021/04/14 03:01:38;;;;;;;4.90;2.72;;;128.20;2252.80;;;;;;5056471;28;20397;-67
2021/04/14 03:04:09;;;;;;;4.30;2.88;;;128.30;2252.80;;;;;;5056326;28;20358;-67
2021/04/14 03:06:36;;;;;;;2.67;2.30;;;128.40;2252.80;;;;;;5056596;28;20408;-67
2021/04/14 03:09:04;;;;;;;3.13;2.58;;;128.30;2252.80;;;;;;5056202;28;20390;-67
2021/04/14 03:11:30;;;;;;;3.13;2.47;;;128.30;2252.80;;;;;;5056181;28;20431;-67
2021/04/14 03:13:57;;;;;;;3.85;2.60;;;128.20;2252.80;;;;;;5056240;28;20393;-68
2021/04/14 03:16:24;;;;;;;2.80;2.22;;;128.10;2252.80;;;;;;5055681;28;20366;-67
2021/04/14 03:18:50;;;;;;;2.78;2.25;;;128.20;2252.80;;;;;;5055449;28;20465;-67
2021/04/14 03:21:17;;;;;;;3.00;2.42;;;128.20;2252.80;;;;;;5056029;28;20362;-67
2021/04/14 03:23:43;;;;;;;2.97;2.50;;;128.30;2252.80;;;;;;5056026;28;20465;-68
2021/04/14 03:26:09;;;;;;;3.53;2.72;;;128.30;2252.80;;;;;;5055830;28;20440;-68
2021/04/14 03:28:35;;;;;;;3.08;2.63;;;128.20;2252.80;;;;;;5055965;28;20343;-67
2021/04/14 03:31:01;;;;;;;3.72;3.08;;;128.30;2252.80;;;;;;5055895;28;20358;-68
2021/04/14 03:33:27;;;;;;;3.47;2.70;;;128.30;2252.80;;;;;;5055761;28;20366;-67
2021/04/14 03:35:54;;;;;;;2.90;2.60;;;128.30;2252.80;;;;;;5056056;28;20071;-67
2021/04/14 03:38:20;;;;;;;3.65;3.00;;;128.20;2252.80;;;;;;5055644;28;20495;-67
2021/04/14 03:40:47;;;;;;;4.55;3.53;;;128.30;2252.80;;;;;;5055701;28;20357;-67
2021/04/14 03:43:13;;;;;;;4.00;2.90;;;128.30;2252.80;;;;;;5055660;28;20464;-69
2021/04/14 03:45:42;;;;;;;5.03;2.92;;;128.20;2252.80;;;;;;5055522;28;20430;-67
2021/04/14 03:48:09;;;;;;;3.90;3.15;;;128.10;2252.80;;;;;;5055489;28;20531;-67
2021/04/14 03:50:36;;;;;;;3.42;3.10;;;128.20;2252.80;;;;;;5055474;28;20480;-67
2021/04/14 03:53:23;;;;;;;3.20;2.75;;;128.10;2252.80;;;;;;5055464;28;20403;-68
2021/04/14 03:55:59;;;;;;;3.67;3.03;;;128.30;2252.80;;;;;;5055378;28;20532;-67
2021/04/14 03:58:27;;;;;;;3.83;3.42;;;128.20;2252.80;;;;;;5055598;28;20032;-68
2021/04/14 04:00:54;;;;;;;5.28;4.22;;;128.30;2252.80;;;;;;5055910;28;20393;-67
2021/04/14 04:03:22;;;;;;;4.40;4.00;;;128.10;2252.80;;;;;;5055192;28;20368;-68
2021/04/14 04:05:49;;;;;;;13.38;7.43;;;128.10;2252.80;;;;;;5055486;28;20354;-68
2021/04/14 04:08:15;;;;;;;6.22;4.80;;;128.20;2252.80;;;;;;5055463;28;20454;-67
2021/04/14 04:10:41;;;;;;;6.95;5.40;;;128.10;2252.80;;;;;;5055161;28;20512;-67
2021/04/14 04:13:08;;;;;;;7.05;5.60;;;128.10;2252.80;;;;;;5055136;28;20461;-67
2021/04/14 04:15:37;;;;;;;6.03;5.43;;;128.20;2252.80;;;;;;5054933;28;20455;-67
2021/04/14 04:18:04;;;;;;;8.05;5.47;;;128.30;2252.80;;;;;;5054795;28;20369;-67
2021/04/14 04:20:30;;;;;;;5.85;5.15;;;128.30;2252.80;;;;;;5054980;28;20481;-67
2021/04/14 04:22:57;;;;;;;4.70;4.20;;;128.40;2252.80;;;;;;5054915;28;20365;-67
2021/04/14 04:25:23;;;;;;;5.70;4.55;;;128.30;2252.80;;;;;;5054668;28;20466;-68
2021/04/14 04:27:50;;;;;;;5.72;4.78;;;128.20;2252.80;;;;;;5054580;28;20365;-68
2021/04/14 04:30:17;;;;;;;6.00;5.00;;;128.20;2252.80;;;;;;5054696;28;20436;-67
2021/04/14 04:32:43;;;;;;;5.82;4.63;;;128.20;2252.80;;;;;;5036872;28;20401;-68
2021/04/14 04:35:10;;;;;;;5.20;4.55;;;128.10;2252.80;;;;;;5054642;28;20392;-68
2021/04/14 04:37:36;;;;;;;6.43;4.65;;;128.10;2252.80;;;;;;5054485;28;20343;-67
2021/04/14 04:40:04;;;;;;;7.47;5.40;;;128.10;2252.80;;;;;;5054816;28;20408;-68
2021/04/14 04:42:30;;;;;;;4.28;3.88;;;128.10;2252.80;;;;;;5054425;28;20445;-67
2021/04/14 04:44:57;;;;;;;8.02;5.22;;;128.10;2252.80;;;;;;5054729;28;20401;-67
2021/04/14 04:47:24;;;;;;;8.40;5.55;;;128.00;2252.80;;;;;;5054402;28;20481;-68
2021/04/14 04:49:50;;;;;;;9.25;6.80;;;128.00;2252.80;;;;;;5054343;28;20339;-69
2021/04/14 04:52:16;;;;;;;7.93;5.90;;;128.00;2252.80;;;;;;5054310;28;20532;-67
2021/04/14 04:54:42;;;;;;;9.27;6.65;;;128.20;2252.80;;;;;;5054214;28;20418;-68
2021/04/14 04:57:08;;;;;;;7.55;5.75;;;128.20;2252.80;;;;;;5054396;28;20362;-68
2021/04/14 04:59:34;;;;;;;9.32;5.63;;;128.30;2252.80;;;;;;5054186;28;20377;-68
2021/04/14 05:02:01;;;;;;;8.45;5.97;;;128.20;2252.80;;;;;;5054041;28;20393;-68
2021/04/14 05:04:28;;;;;;;8.25;5.35;;;128.20;2252.80;;;;;;5054055;28;20366;-68
2021/04/14 05:06:54;;;;;;;8.65;5.82;;;128.20;2252.80;;;;;;5054106;28;20466;-67
2021/04/14 05:09:21;;;;;;;9.77;5.80;;;128.20;2252.80;;;;;;5053989;28;20394;-68
2021/04/14 05:11:47;;;;;;;8.77;5.25;;;128.20;2252.80;;;;;;5053946;28;20347;-67
2021/04/14 05:14:14;;;;;;;6.88;4.97;;;128.30;2252.80;;;;;;5053853;28;20366;-67
2021/04/14 05:16:40;;;;;;;7.13;4.60;;;128.30;2252.80;;;;;;5053895;28;20400;-68
2021/04/14 05:19:07;;;;;;;7.88;5.00;;;128.30;2252.80;;;;;;5053690;28;20374;-68
2021/04/14 05:21:36;;;;;;;11.18;6.10;;;128.40;2252.80;;;;;;5053774;28;20417;-68
2021/04/14 05:24:02;;;;;;;9.55;5.78;;;128.20;2252.80;;;;;;5054011;28;20549;-67
2021/04/14 05:26:29;;;;;;;6.80;5.22;;;128.30;2252.80;;;;;;5053538;28;20390;-68
2021/04/14 05:28:56;;;;;;;5.40;4.75;;;128.30;2252.80;;;;;;5053773;28;20465;-67
2021/04/14 05:31:28;;;;;;;6.15;5.38;;;128.40;2252.80;;;;;;5053653;28;20481;-68
2021/04/14 05:33:56;;;;;;;7.47;5.77;;;128.50;2252.80;;;;;;5036976;28;20364;-67
2021/04/14 05:36:23;;;;;;;7.00;5.80;;;128.40;2252.80;;;;;;5053561;28;20392;-67
2021/04/14 05:38:50;;;;;;;7.65;5.93;;;128.30;2252.80;;;;;;5053772;28;20409;-67
2021/04/14 05:41:17;;;;;;;8.07;6.50;;;128.30;2252.80;;;;;;5052979;28;20415;-67
2021/04/14 05:43:43;;;;;;;9.57;7.35;;;128.30;2252.80;;;;;;5053419;28;20410;-68
2021/04/14 05:46:12;;;;;;;8.45;7.03;;;128.40;2252.80;;;;;;5053445;28;20342;-67
2021/04/14 05:48:40;;;;;;;8.63;6.07;;;128.30;2252.80;;;;;;5053374;28;20378;-68
2021/04/14 05:51:13;;;;;;;7.13;5.95;;;128.40;2252.80;;;;;;5053386;28;20478;-68
2021/04/14 05:53:40;;;;;;;9.02;6.70;;;128.40;2252.80;;;;;;5053472;28;20372;-68
2021/04/14 05:56:09;;;;;;;7.82;6.63;;;128.50;2252.80;;;;;;5035605;28;20355;-67
2021/04/14 05:58:36;;;;;;;10.98;7.65;;;128.40;2252.80;;;;;;5053283;28;20361;-67
2021/04/14 06:01:06;;;;;;;6.47;5.88;;;128.40;2252.80;;;;;;5053241;28;20351;-68
2021/04/14 06:03:32;;;;;;;7.13;5.78;;;128.50;2252.80;;;;;;5053180;28;20448;-68
2021/04/14 06:06:00;;;;;;;7.65;5.80;;;128.50;2252.80;;;;;;5053223;28;20013;-68
2021/04/14 06:08:28;;;;;;;6.85;5.55;;;128.50;2252.80;;;;;;5035282;28;20430;-68
2021/04/14 06:14:16;;;;;;;6.32;5.18;;;128.50;2252.80;;;;;;5053248;28;20062;-68
2021/04/14 06:16:43;;;;;;;7.00;5.82;;;128.50;2252.80;;;;;;5053003;28;20511;-69
2021/04/14 06:19:10;;;;;;;6.78;5.85;;;128.50;2252.80;;;;;;5053006;28;20520;-67
2021/04/14 06:21:36;;;;;;;8.18;7.38;;;128.50;2252.80;;;;;;5052947;28;20541;-69
2021/04/14 06:24:05;;;;;;;11.65;8.40;;;128.50;2252.80;;;;;;5052950;28;20370;-69
2021/04/14 06:26:45;;;;;;;7.45;6.22;;;128.70;2252.80;;;;;;5053379;28;20524;-67
2021/04/14 06:29:12;;;;;;;7.65;6.25;;;128.80;2252.80;;;;;;5053195;28;20458;-67
2021/04/14 06:31:41;;;;;;;6.45;5.57;;;128.80;2252.80;;;;;;5052979;28;20545;-68
2021/04/14 06:34:22;;;;;;;8.85;6.80;;;128.80;2252.80;;;;;;5053200;28;20450;-68
2021/04/14 06:36:52;;;;;;;8.32;7.53;;;128.80;2252.80;;;;;;5053152;28;20116;-68
2021/04/14 06:39:19;;;;;;;13.52;10.20;;;128.90;2252.80;;;;;;5052885;28;20415;-68
2021/04/14 06:44:59;;;;;;;12.23;8.23;;;153.70;2252.80;;;;;;5053000;28;20489;-68
2021/04/14 06:47:34;;;;;;;9.43;7.38;;;153.60;2252.80;;;;;;5053171;28;20389;-68
2021/04/14 06:50:07;;;;;;;12.43;9.30;;;153.60;2252.80;;;;;;5053066;28;20481;-69
2021/04/14 06:52:57;;;;;;;7.40;6.17;;;153.60;2252.80;;;;;;5037750;28;20021;-69
2021/04/14 06:55:32;;;;;;;12.25;9.65;;;153.70;2252.80;;;;;;5055725;28;20602;-68
2021/04/14 06:58:04;;;;;;;20.80;14.27;;;153.80;2252.80;;;;;;5056798;28;20517;-67
2021/04/14 07:00:36;;;;;;;10.98;8.18;;;153.70;2252.80;;;;;;5056459;28;20378;-68
2021/04/14 07:03:07;;;;;;;10.00;7.78;;;153.70;2252.80;;;;;;5056707;28;20394;-67
2021/04/14 07:05:43;;;;;;;10.90;8.05;;;153.80;2252.80;;;;;;5056438;28;20477;-68
2021/04/14 07:08:20;;;;;;;11.93;9.90;;;153.90;2252.80;;;;;;5056415;28;20391;-68
2021/04/14 07:10:51;;;;;;;10.25;7.57;;;153.80;2252.80;;;;;;5056274;28;20429;-68
2021/04/14 07:13:17;;;;;;;8.48;6.10;;;153.80;2252.80;;;;;;5056105;28;20370;-68
2021/04/14 07:15:44;;;;;;;7.00;5.30;;;153.90;2252.80;;;;;;5056013;28;20436;-68
2021/04/14 07:18:45;;;;;;;8.07;5.00;;;153.90;2252.80;;;;;;5055809;28;20342;-70
2021/04/14 07:21:29;;;;;;;6.78;5.00;;;153.90;2252.80;;;;;;5056290;28;20519;-70
2021/04/14 07:24:03;;;;;;;5.90;5.30;;;153.90;2252.80;;;;;;5055966;28;20489;-68
2021/04/14 07:26:32;;;;;;;6.32;5.40;;;153.90;2252.80;;;;;;5037857;28;20457;-69
2021/04/14 07:29:10;;;;;;;9.32;6.13;;;153.90;2252.80;;;;;;5056144;28;20350;-68
2021/04/14 07:31:57;;;;;;;7.55;6.10;;;153.90;2252.80;;;;;;5056068;28;20365;-69
2021/04/14 07:34:48;;;;;;;6.32;5.32;;;153.90;2252.80;;;;;;5037879;28;20440;-70
2021/04/14 07:37:26;;;;;;;7.47;6.13;;;153.80;2252.80;;;;;;5055677;28;20450;-68
2021/04/14 07:40:18;;;;;;;6.22;5.40;;;153.90;2252.80;;;;;;5055664;28;20074;-69
2021/04/14 07:43:06;;;;;;;5.63;4.97;;;153.90;2252.80;;;;;;5037981;28;20493;-68
2021/04/14 07:45:37;;;;;;;7.35;5.65;;;153.90;2252.80;;;;;;5037584;28;20021;-68
2021/04/14 07:48:08;;;;;;;9.40;6.30;;;153.80;2252.80;;;;;;5055797;28;20457;-69
2021/04/14 07:50:46;;;;;;;7.00;5.47;;;153.90;2252.80;;;;;;5055991;28;20413;-68
2021/04/14 07:53:19;;;;;;;6.82;5.50;;;153.90;2252.80;;;;;;5055326;28;20369;-75
2021/04/14 07:55:46;;;;;;;6.63;5.57;;;154.00;2252.80;;;;;;5037491;28;20388;-75
2021/04/14 07:58:25;;;;;;;7.82;5.93;;;154.10;2252.80;;;;;;5055306;28;20512;-75
2021/04/14 08:00:51;;;;;;;9.23;5.03;;;154.10;2252.80;;;;;;5037564;28;20358;-75
2021/04/14 08:03:28;;;;;;;7.55;6.50;;;154.20;2252.80;;;;;;5054620;28;20420;-75
2021/04/14 08:06:06;;;;;;;59.45;54.45;;;154.30;2252.80;;;;;;5055516;28;20473;-69
2021/04/14 08:08:32;;;;;;;9.50;7.15;;;154.30;2252.80;;;;;;5055126;28;20530;-70
2021/04/14 08:11:03;;;;;;;8.20;5.47;;;154.20;2252.80;;;;;;5055248;28;20096;-68
2021/04/14 08:13:38;;;;;;;10.27;4.80;;;154.20;2252.80;;;;;;5055094;28;20496;-73
2021/04/14 08:16:31;;;;;;;5.07;4.10;;;154.20;2252.80;;;;;;5055354;28;20458;-68
2021/04/14 08:19:03;;;;;;;4.80;3.88;;;154.20;2252.80;;;;;;5054925;28;20469;-69
2021/04/14 08:21:51;;;;;;;6.07;4.80;;;154.20;2252.80;;;;;;5037858;28;20406;-68
2021/04/14 08:24:37;;;;;;;7.28;5.30;;;154.20;2252.80;;;;;;5055076;28;20025;-69
2021/04/14 08:27:13;;;;;;;5.72;4.28;;;154.10;2252.80;;;;;;5054523;28;20451;-68
2021/04/14 08:29:39;;;;;;;4.95;4.10;;;154.10;2252.80;;;;;;5054998;28;20362;-67
2021/04/14 08:32:16;;;;;;;6.22;4.85;;;154.20;2252.80;;;;;;5055013;28;20404;-68
2021/04/14 08:34:59;;;;;;;7.07;4.75;;;154.20;2252.80;;;;;;5054779;28;20546;-72
2021/04/14 08:37:27;;;;;;;5.78;4.97;;;154.30;2252.80;;;;;;5054671;28;20450;-71
2021/04/14 08:39:57;;;;;;;6.05;4.72;;;154.40;2252.80;;;;;;5036821;28;20374;-67
2021/04/14 08:42:32;;;;;;;8.63;5.15;;;154.40;2252.80;;;;;;5054536;28;20519;-67
2021/04/14 08:45:05;;;;;;;6.47;4.57;;;154.50;2252.80;;;;;;5054543;28;20343;-67
2021/04/14 08:47:34;;;;;;;6.23;5.00;;;154.40;2252.80;;;;;;5054493;28;20497;-67
2021/04/14 08:50:08;;;;;;;7.57;5.32;;;154.30;2252.80;;;;;;5054362;28;20484;-72
2021/04/14 08:52:41;;;;;;;10.60;7.22;;;154.40;2252.80;;;;;;5054686;28;20472;-73
2021/04/14 08:55:07;;;;;;;24.63;17.33;;;154.30;2252.80;;;;;;5054635;28;20334;-72
2021/04/14 08:57:34;;;;;;;17.08;9.95;;;154.40;2252.80;;;;;;5036414;28;20347;-72
2021/04/14 09:00:00;;;;;;;9.35;8.35;;;154.40;2252.80;;;;;;5054276;28;20366;-73
2021/04/14 09:02:26;;;;;;;9.20;7.32;;;154.40;2252.80;;;;;;5036309;28;20440;-72
2021/04/14 09:04:54;;;;;;;11.23;8.85;;;154.30;2252.80;;;;;;5036280;28;20531;-75
2021/04/14 09:07:37;;;;;;;15.23;9.00;;;154.30;2252.80;;;;;;5054148;28;20430;-72
2021/04/14 09:10:08;;;;;;;11.95;7.07;;;154.30;2252.80;;;;;;5054502;28;20465;-74
2021/04/14 09:12:43;;;;;;;12.75;6.82;;;154.30;2252.80;;;;;;5036304;28;20351;-76
2021/04/14 09:15:13;;;;;;;7.93;6.82;;;154.30;2252.80;;;;;;5053448;28;20483;-72
2021/04/14 09:17:41;;;;;;;10.57;7.95;;;154.40;2252.80;;;;;;5053964;28;20440;-80
2021/04/14 09:20:20;;;;;;;11.40;8.93;;;179.20;2252.80;;;;;;5053912;28;20017;-78
2021/04/14 09:23:11;;;;;;;16.55;12.63;;;179.20;2252.80;;;;;;5054012;28;20373;-80
2021/04/14 09:25:53;;;;;;;26.50;23.48;;;154.50;2252.80;;;;;;5053803;28;20398;-80
2021/04/14 09:28:29;;;;;;;59.03;40.65;;;179.20;2252.80;;;;;;5053838;28;20480;-76
2021/04/14 09:31:13;;;;;;;26.27;18.45;;;179.20;2252.80;;;;;;5036646;28;20377;-75
2021/04/14 09:33:40;;;;;;;;;;;179.20;2252.80;;;;;;5054429;28;20396;-78
2021/04/14 09:36:11;;;;;;;30.30;26.30;;;179.20;2252.80;;;;;;5053719;28;19904;-74
2021/04/14 09:38:49;;;;;;;26.58;20.38;;;179.20;2252.80;;;;;;5053662;28;20374;-72
2021/04/14 09:41:24;;;;;;;54.28;29.77;;;179.30;2252.80;;;;;;5053780;28;20446;-78
2021/04/14 09:43:52;;;;;;;26.90;18.73;;;179.40;2252.80;;;;;;5036327;28;20453;-77
2021/04/14 09:46:39;;;;;;;32.95;18.52;;;179.50;2252.80;;;;;;5053959;28;20369;-79
2021/04/14 09:49:17;;;;;;;18.95;14.18;;;179.50;2252.80;;;;;;5053998;28;20353;-73
2021/04/14 09:52:06;;;;;;;53.00;38.17;;;179.30;2252.80;;;;;;5053469;28;20420;-73
2021/04/14 09:54:37;;;;;;;53.05;44.25;;;179.40;2252.80;;;;;;5053451;28;20381;-74
2021/04/14 09:57:05;;;;;;;95.55;79.72;;;179.30;2252.80;;;;;;5053473;28;20442;-81
2021/04/14 09:59:42;;;;;;;53.90;48.38;;;179.50;2252.80;;;;;;5053562;28;20500;-73
2021/04/14 10:02:18;;;;;;;41.33;37.53;;;179.60;2252.80;;;;;;5053957;28;20013;-80
2021/04/14 10:04:47;;;;;;;14.55;12.95;;;179.60;2252.80;;;;;;5053839;28;20055;-78
2021/04/14 10:07:23;;;;;;;11.20;9.40;;;179.60;2227.20;;;;;;5053401;28;20414;-76
2021/04/14 10:09:50;;;;;;;12.25;10.23;;;179.60;2227.20;;;;;;5053606;28;20389;-76
2021/04/14 10:12:19;;;;;;;15.65;11.35;;;179.60;2227.20;;;;;;5035458;28;20433;-78
2021/04/14 10:14:57;;;;;;;11.45;8.20;;;179.60;2201.60;;;;;;5035373;28;20445;-79
2021/04/14 10:17:26;;;;;;;11.07;9.02;;;179.60;2252.80;;;;;;5053289;28;20420;-80
2021/04/14 10:19:55;;;;;;;14.82;11.40;;;179.70;2227.20;;;;;;5053461;28;20438;-79
2021/04/14 10:22:37;;;;;;;14.43;10.73;;;179.80;2252.80;;;;;;5053285;28;20017;-77
2021/04/14 10:25:17;;;;;;;42.85;26.17;;;179.80;2252.80;;;;;;5035658;28;20032;-80
2021/04/14 10:27:45;;;;;;;19.75;13.38;;;179.80;2227.20;;;;;;5056340;28;20366;-75
2021/04/14 10:30:19;;;;;;;24.58;14.55;;;179.90;2227.20;;;;;;5058306;28;20391;-78
2021/04/14 10:32:46;;;;;;;32.80;20.02;;;179.80;2227.20;;;;;;5040094;28;20378;-80
2021/04/14 10:35:21;;;;;;;28.85;20.05;;;179.80;2227.20;;;;;;5057518;28;20392;-75
2021/04/14 10:37:52;;;;;;;13.43;10.10;;;179.90;2227.20;;;;;;5057131;28;20362;-79
2021/04/14 10:40:47;;;;;;;43.90;23.95;;;179.80;2227.20;;;;;;5056911;28;20458;-78
2021/04/14 10:43:20;;;;;;;;;;;179.70;2227.20;;;;;;5034756;28;20407;-79
2021/04/14 10:46:03;;;;;;;11.38;8.48;;;179.70;2252.80;;;;;;5056964;28;20357;-76
2021/04/14 10:48:33;;;;;;;7.70;5.78;;;179.70;2252.80;;;;;;5057079;28;20456;-77
2021/04/14 10:51:18;;;;;;;9.30;7.78;;;179.60;2252.80;;;;;;5057001;28;20442;-74
2021/04/14 10:53:56;;;;;;;8.48;6.47;;;179.60;2252.80;;;;;;5056541;28;20463;-78
2021/04/14 10:56:30;;;;;;;16.58;7.43;;;179.60;2252.80;;;;;;5056664;28;20389;-75
2021/04/14 10:59:04;;;;;;;13.88;8.48;;;179.70;2227.20;;;;;;5056586;28;20462;-79
2021/04/14 11:01:36;;;;;;;22.30;10.93;;;179.60;2252.80;;;;;;5056881;28;20454;-74
2021/04/14 11:04:27;;;;;;;25.63;11.85;;;179.60;2252.80;;;;;;5057173;28;20358;-77
2021/04/14 11:06:59;;;;;;;21.23;12.60;;;179.60;2227.20;;;;;;5056525;28;20469;-78
2021/04/14 11:09:25;;;;;;;19.92;10.95;;;179.80;2201.60;;;;;;5056505;28;20357;-78
2021/04/14 11:11:52;;;;;;;19.05;10.85;;;179.80;2227.20;;;;;;5056511;28;20043;-78
2021/04/14 11:14:20;;;;;;;14.48;8.85;;;179.80;2227.20;;;;;;5056281;28;20481;-76
2021/04/14 11:16:48;;;;;;;37.88;15.98;;;179.70;2252.80;;;;;;5039203;28;20343;-76
2021/04/14 11:19:21;;;;;;;42.88;19.27;;;179.70;2227.20;;;;;;5056179;28;20338;-78
2021/04/14 11:22:04;;;;;;;29.90;16.27;;;179.70;2227.20;;;;;;5056535;28;20390;-74
2021/04/14 11:24:41;;;;;;;17.00;14.52;;;179.70;2252.80;;;;;;5056224;28;20508;-74
2021/04/14 11:27:22;;;;;;;25.67;18.10;;;179.90;2252.80;;;;;;5056006;28;20044;-78
2021/04/14 11:29:49;;;;;;;8.43;7.57;;;180.00;2252.80;;;;;;5056340;28;20453;-77
2021/04/14 11:32:23;;;;;;;6.65;5.85;;;180.10;2227.20;;;;;;5056030;28;20028;-75
2021/04/14 11:35:01;;;;;;;12.88;8.43;;;180.10;2201.60;;;;;;5056225;28;20339;-77
2021/04/14 11:37:36;;;;;;;10.85;7.53;;;180.00;2227.20;;;;;;5055570;28;20366;-77
2021/04/14 11:40:06;;;;;;;10.18;8.38;;;180.00;2252.80;;;;;;5037747;28;20368;-77
2021/04/14 11:42:56;;;;;;;12.25;10.98;;;179.80;2252.80;;;;;;5055874;28;20409;-76
2021/04/14 11:45:35;;;;;;;14.98;12.18;;;179.90;2252.80;;;;;;5055712;28;20465;-76
2021/04/14 11:48:14;;;;;;;22.05;17.52;;;180.00;2252.80;;;;;;5055803;28;20406;-78
2021/04/14 11:50:45;;;;;;;17.38;15.25;;;180.10;2227.20;;;;;;5055991;28;20074;-78
2021/04/14 11:53:23;;;;;;;22.00;16.23;;;180.10;2227.20;;;;;;5055832;28;20385;-80
2021/04/14 11:55:50;;;;;;;18.27;7.53;;;180.10;2227.20;;;;;;5055663;28;20389;-77
2021/04/14 11:58:19;;;;;;;7.88;7.07;;;180.10;2227.20;;;;;;5055389;28;20466;-76
2021/04/14 12:00:47;;;;;;;9.88;8.13;;;180.00;2227.20;;;;;;5037267;28;20377;-75
2021/04/14 12:03:36;;;;;;;50.05;21.58;;;179.90;2252.80;;;;;;5055191;28;20373;-79
2021/04/14 12:06:03;;;;;;;14.60;10.32;;;179.80;2252.80;;;;;;5037223;28;20393;-76
2021/04/14 12:08:30;;;;;;;9.32;7.68;;;179.70;2252.80;;;;;;5055421;28;20375;-80
2021/04/14 12:10:59;;;;;;;9.63;8.38;;;179.60;2252.80;;;;;;5054832;28;20342;-76
2021/04/14 12:13:25;;;;;;;11.52;10.18;;;179.70;2252.80;;;;;;5038002;28;20339;-78
2021/04/14 12:15:51;;;;;;;15.95;13.55;;;179.80;2252.80;;;;;;5037191;28;20374;-76
2021/04/14 12:18:18;;;;;;;17.13;15.05;;;179.90;2252.80;;;;;;5055101;28;20029;-76
2021/04/14 12:20:45;;;;;;;12.10;10.90;;;180.10;2252.80;;;;;;5036968;28;20381;-76
2021/04/14 12:23:12;;;;;;;18.67;14.60;;;204.90;2252.80;;;;;;5054821;28;20381;-76
2021/04/14 12:25:39;;;;;;;13.57;12.13;;;205.00;2252.80;;;;;;5036589;28;20416;-79
2021/04/14 12:28:05;;;;;;;9.63;8.73;;;205.00;2227.20;;;;;;5054749;28;20389;-78
2021/04/14 12:30:32;;;;;;;11.45;10.30;;;205.00;2201.60;;;;;;5036802;28;20347;-75
2021/04/14 12:32:59;;;;;;;15.70;11.38;;;205.00;2201.60;;;;;;5054634;28;20052;-84
2021/04/14 12:35:26;;;;;;;12.35;11.13;;;205.00;2227.20;;;;;;5036524;28;20423;-78
2021/04/14 12:37:55;;;;;;;11.35;10.25;;;205.10;2201.60;;;;;;5036544;28;20413;-79